Time;durP1;ratioP1;P1;durP2;ratioP2;P2;SDS_P1;SDS_P2;PMS_P1;PMS_P2;Temp;Humidity;BMP_temperature;BMP_pressure;BME280_temperature;BME280_humidity;BME280_pressure;Samples;Min_cycle;Max_cycle;Signal;HPM_P1;HPM_P2
2023/10/10 00:01:03;;;;;;;8.82;6.35;;;;;;;14.87;93.75;101992.53;5114850;28;20042;-62
2023/10/10 00:03:31;;;;;;;13.52;8.43;;;;;;;14.84;95.21;101989.81;5115187;28;20047;-61
2023/10/10 00:05:58;;;;;;;15.95;8.23;;;;;;;14.81;95.65;101993.34;5114766;28;20034;-60
2023/10/10 00:08:30;;;;;;;13.18;7.50;;;;;;;14.76;94.95;101990.63;5115074;28;20059;-61
2023/10/10 00:10:56;;;;;;;11.75;7.13;;;;;;;14.69;95.44;101991.44;5115070;28;20031;-61
2023/10/10 00:13:25;;;;;;;13.32;7.90;;;;;;;14.70;96.34;101992.34;5114523;28;20065;-61
2023/10/10 00:15:51;;;;;;;14.15;8.38;;;;;;;14.75;96.05;101994.16;5114628;28;20498;-61
2023/10/10 00:18:19;;;;;;;14.35;8.02;;;;;;;14.80;95.39;101988.91;5114445;28;20440;-61
2023/10/10 00:23:33;;;;;;;12.48;6.88;;;;;;;14.74;95.41;101992.38;5114621;28;20400;-61
2023/10/10 00:25:59;;;;;;;10.32;6.65;;;;;;;14.82;94.73;101996.88;5114708;28;20032;-61
2023/10/10 00:28:27;;;;;;;17.30;8.05;;;;;;;14.85;94.87;101994.28;5114455;28;20100;-61
2023/10/10 00:30:53;;;;;;;13.77;7.68;;;;;;;14.89;94.42;101993.44;5114556;28;20049;-60
2023/10/10 00:33:19;;;;;;;12.32;8.98;;;;;;;14.90;94.60;102001.44;5114302;28;20449;-61
2023/10/10 00:35:47;;;;;;;12.75;8.07;;;;;;;14.93;94.55;101997.91;5114188;27;20485;-62
2023/10/10 00:38:22;;;;;;;11.60;7.72;;;;;;;14.84;93.86;101990.72;5114184;28;20028;-61
2023/10/10 00:40:48;;;;;;;11.52;7.82;;;;;;;14.77;94.09;101991.50;5114511;28;20134;-61
2023/10/10 00:43:22;;;;;;;12.98;8.27;;;;;;;14.71;94.78;101981.69;5114334;28;20071;-61
2023/10/10 00:45:52;;;;;;;15.55;9.40;;;;;;;14.72;95.42;101985.25;5113955;28;20031;-61
2023/10/10 00:48:22;;;;;;;17.75;10.02;;;;;;;14.70;96.04;101981.69;5112752;28;20504;-61
2023/10/10 00:51:05;;;;;;;16.33;9.27;;;;;;;14.73;95.72;101987.03;5113827;28;20131;-61
2023/10/10 00:53:33;;;;;;;13.70;7.95;;;;;;;14.76;94.39;101982.63;5113193;28;20039;-61
2023/10/10 00:56:00;;;;;;;13.63;8.10;;;;;;;14.77;93.69;101986.19;5114045;28;20042;-61
2023/10/10 00:58:35;;;;;;;19.58;11.95;;;;;;;14.80;95.30;101986.22;5112599;28;20019;-61
2023/10/10 01:01:08;;;;;;;14.57;8.15;;;;;;;14.80;94.13;101982.69;5113987;28;20114;-61
2023/10/10 01:03:35;;;;;;;13.48;8.07;;;;;;;14.75;93.40;101978.19;5113911;28;20066;-61
2023/10/10 01:06:05;;;;;;;12.98;8.48;;;;;;;14.74;93.60;101978.19;5113799;28;20051;-61
2023/10/10 01:08:58;;;;;;;13.25;8.15;;;;;;;14.78;93.85;101974.69;5114014;28;20055;-61
2023/10/10 01:11:23;;;;;;;13.00;8.18;;;;;;;14.71;93.42;101964.84;5113789;28;20380;-61
2023/10/10 01:13:56;;;;;;;11.90;7.95;;;;;;;14.73;93.63;101971.06;5113507;28;20020;-61
2023/10/10 01:16:24;;;;;;;15.27;9.50;;;;;;;14.72;94.35;101971.94;5113467;28;20032;-61
2023/10/10 01:18:57;;;;;;;16.40;9.57;;;;;;;14.78;94.40;101961.38;5113515;28;20479;-61
2023/10/10 01:21:36;;;;;;;10.63;8.18;;;;;;;14.79;94.46;101960.50;5112380;28;20042;-62
2023/10/10 01:24:08;;;;;;;14.75;8.13;;;;;;;14.73;94.05;101956.03;5113705;28;20039;-62
2023/10/10 01:26:37;;;;;;;14.82;8.38;;;;;;;14.68;93.81;101955.03;5113568;28;20036;-60
2023/10/10 01:29:25;;;;;;;14.60;8.90;;;;;;;14.63;93.88;101951.44;5113567;28;20024;-62
2023/10/10 01:31:54;;;;;;;15.55;9.60;;;;;;;14.62;94.26;101957.66;5113313;28;20519;-61
2023/10/10 01:34:43;;;;;;;14.35;8.98;;;;;;;14.52;93.87;101951.34;5113604;28;20051;-60
2023/10/10 01:37:14;;;;;;;17.92;7.88;;;;;;;14.34;93.35;101926.22;5113409;28;20420;-60
2023/10/10 01:40:16;;;;;;;18.13;9.50;;;;;;;14.33;94.95;101943.94;5113695;28;20036;-61
2023/10/10 01:42:51;;;;;;;13.07;9.48;;;;;;;14.20;96.96;101934.91;5113260;28;20495;-60
2023/10/10 01:45:20;;;;;;;18.17;10.48;;;;;;;14.11;97.47;101924.16;5111955;28;20044;-61
2023/10/10 01:48:02;;;;;;;13.82;9.73;;;;;;;14.03;97.82;101934.69;5113297;28;20039;-61
2023/10/10 01:50:30;;;;;;;18.73;9.40;;;;;;;14.00;98.08;101932.00;5113019;28;20110;-62
2023/10/10 01:52:57;;;;;;;12.07;9.35;;;;;;;13.95;98.14;101928.38;5113250;28;20112;-60
2023/10/10 01:55:25;;;;;;;10.05;8.50;;;;;;;13.93;98.32;101918.59;5113469;28;20023;-61
2023/10/10 01:57:51;;;;;;;11.38;9.25;;;;;;;13.92;98.06;101917.72;5113408;28;20022;-61
2023/10/10 02:00:26;;;;;;;12.65;9.68;;;;;;;13.92;97.82;101917.72;5113016;28;20027;-61
2023/10/10 02:02:55;;;;;;;15.07;10.98;;;;;;;13.90;98.22;101913.25;5113138;28;20102;-61
2023/10/10 02:07:57;;;;;;;15.57;11.52;;;;;;;14.06;98.08;101915.25;5117250;28;20039;-61
2023/10/10 02:10:26;;;;;;;17.73;11.15;;;;;;;14.09;97.60;101912.63;5117011;28;20028;-61
2023/10/10 02:12:52;;;;;;;14.10;11.30;;;;;;;14.16;97.60;101905.63;5117304;28;20036;-60
2023/10/10 02:15:26;;;;;;;16.02;11.20;;;;;;;14.20;96.83;101905.69;5117001;28;20524;-61
2023/10/10 02:17:54;;;;;;;14.98;10.07;;;;;;;14.22;96.51;101900.41;5117172;28;20050;-61
2023/10/10 02:22:53;;;;;;;12.90;10.27;;;;;;;14.26;95.58;101897.78;5117014;28;20050;-61
2023/10/10 02:28:10;;;;;;;17.25;11.80;;;;;;;14.24;95.63;101895.97;5116906;28;20414;-60
2023/10/10 02:30:36;;;;;;;20.48;11.98;;;;;;;14.18;95.51;101880.84;5116930;28;20040;-62
2023/10/10 02:33:55;;;;;;;17.35;11.15;;;;;;;14.14;95.35;101884.34;5116512;28;20046;-61
2023/10/10 02:35:58;;;;;;;19.85;10.60;;;;;;;14.09;95.43;101880.75;5107906;28;20071;-61
2023/10/10 02:38:36;;;;;;;17.08;10.73;;;;;;;14.08;96.70;101872.72;5116722;28;20096;-62
2023/10/10 02:46:34;;;;;;;13.95;9.13;;;;;;;13.92;97.62;101877.88;5116583;28;20038;-60
2023/10/10 02:49:23;;;;;;;13.65;10.00;;;;;;;13.92;98.43;101884.94;5115235;28;20061;-61
2023/10/10 02:51:55;;;;;;;14.38;9.63;;;;;;;13.93;98.17;101882.28;5116003;28;20076;-61
2023/10/10 02:54:31;;;;;;;14.55;9.82;;;;;;;13.91;97.66;101883.13;5116263;28;20028;-61
2023/10/10 02:59:50;;;;;;;13.88;9.25;;;;;;;13.76;97.74;101874.09;5116400;28;20081;-61
2023/10/10 03:02:19;;;;;;;13.15;9.75;;;;;;;13.76;98.36;101882.06;5116263;28;20042;-61
2023/10/10 03:07:28;;;;;;;16.27;11.77;;;;;;;13.75;99.51;101876.75;5116035;28;20051;-62
2023/10/10 03:12:44;;;;;;;14.57;9.85;;;;;;;13.84;98.13;101876.88;5116154;28;20038;-61
2023/10/10 03:15:15;;;;;;;14.93;10.27;;;;;;;13.91;97.83;101885.78;5114939;28;20032;-61
2023/10/10 03:26:04;;;;;;;15.18;10.60;;;;;;;14.08;95.95;101881.59;5115704;28;20036;-60
2023/10/10 03:28:32;;;;;;;16.77;11.73;;;;;;;14.03;96.06;101884.19;5115697;28;20032;-61
2023/10/10 03:31:22;;;;;;;17.77;11.27;;;;;;;13.97;95.91;101878.81;5115631;28;20092;-61
2023/10/10 03:34:03;;;;;;;17.95;11.52;;;;;;;13.99;95.66;101884.13;5115526;28;20074;-61
2023/10/10 03:36:40;;;;;;;17.00;10.40;;;;;;;13.93;95.40;101886.72;5115471;28;20532;-62
2023/10/10 03:39:25;;;;;;;17.63;10.45;;;;;;;13.84;95.60;101883.94;5115758;28;20431;-61
2023/10/10 05:23:37;;;;;;;30.13;19.92;;;;;;;13.42;100.00;101824.91;5113397;28;20043;-61
2023/10/10 05:26:13;;;;;;;30.40;19.88;;;;;;;13.41;100.00;101830.22;5113441;28;20431;-61
2023/10/10 05:28:40;;;;;;;30.65;20.73;;;;;;;13.38;100.00;101825.72;5113177;28;20537;-61
2023/10/10 05:31:09;;;;;;;32.70;20.00;;;;;;;13.28;100.00;101814.09;5113287;28;20034;-61
2023/10/10 05:33:36;;;;;;;31.50;19.98;;;;;;;13.29;100.00;101814.97;5113342;28;20050;-62
2023/10/10 05:36:09;;;;;;;28.42;19.48;;;;;;;13.27;100.00;101817.63;5113287;28;20024;-62
2023/10/10 05:38:39;;;;;;;29.83;19.10;;;;;;;13.31;100.00;101820.31;5115820;28;20027;-61
2023/10/10 05:41:06;;;;;;;28.90;19.63;;;;;;;13.31;100.00;101810.56;5120014;27;20031;-62
2023/10/10 05:43:35;;;;;;;32.40;19.92;;;;;;;13.28;100.00;101807.91;5119913;27;20059;-62
2023/10/10 05:46:03;;;;;;;31.23;20.33;;;;;;;13.22;100.00;101811.31;5120082;27;20034;-61
2023/10/10 05:48:32;;;;;;;32.78;20.75;;;;;;;13.20;100.00;101814.81;5119979;27;20036;-63
2023/10/10 05:50:59;;;;;;;34.10;21.50;;;;;;;13.16;100.00;101807.66;5119997;27;20108;-61
2023/10/10 05:53:26;;;;;;;29.65;20.30;;;;;;;13.19;100.00;101815.66;5119954;27;20038;-62
2023/10/10 05:55:58;;;;;;;34.55;20.48;;;;;;;13.15;100.00;101820.03;5119365;27;20052;-61
2023/10/10 05:58:25;;;;;;;27.73;19.00;;;;;;;13.11;100.00;101828.81;5119740;27;20020;-62
2023/10/10 06:00:53;;;;;;;29.60;20.23;;;;;;;13.07;100.00;101816.38;5118043;28;20127;-62
2023/10/10 06:03:19;;;;;;;34.25;20.52;;;;;;;13.07;100.00;101826.09;5119390;27;20366;-62
2023/10/10 06:05:44;;;;;;;29.23;18.63;;;;;;;13.08;100.00;101817.25;5119372;27;20069;-61
2023/10/10 06:08:11;;;;;;;28.80;18.55;;;;;;;13.08;100.00;101811.97;5119642;28;20103;-61
2023/10/10 06:10:37;;;;;;;30.33;18.38;;;;;;;13.10;100.00;101815.50;5119383;28;20391;-61
2023/10/10 06:13:06;;;;;;;28.48;17.40;;;;;;;13.14;100.00;101814.69;5117857;28;20111;-62
2023/10/10 06:15:33;;;;;;;29.25;17.60;;;;;;;13.15;100.00;101803.25;5119594;27;20027;-61
2023/10/10 06:18:08;;;;;;;31.40;18.33;;;;;;;13.14;100.00;101812.94;5119414;27;20419;-61
2023/10/10 06:20:41;;;;;;;25.55;16.67;;;;;;;13.16;100.00;101820.94;5119585;27;20027;-62
2023/10/10 06:23:11;;;;;;;28.25;17.23;;;;;;;13.12;100.00;101806.72;5119110;27;20028;-62
2023/10/10 06:25:37;;;;;;;24.65;16.80;;;;;;;13.13;100.00;101807.59;5119396;27;20027;-62
2023/10/10 06:28:05;;;;;;;24.23;15.98;;;;;;;13.16;100.00;101813.88;5117964;28;20460;-61
2023/10/10 06:30:36;;;;;;;29.15;16.35;;;;;;;13.18;100.00;101813.88;5119141;27;20036;-61
2023/10/10 06:33:14;;;;;;;23.80;15.98;;;;;;;13.16;100.00;101810.31;5119299;27;20122;-61
2023/10/10 06:35:40;;;;;;;26.02;16.08;;;;;;;13.18;100.00;101811.22;5119044;27;20499;-62
2023/10/10 06:38:10;;;;;;;23.35;14.88;;;;;;;13.20;100.00;101801.53;5119017;27;20028;-61
2023/10/10 06:40:52;;;;;;;25.30;14.85;;;;;;;13.22;100.00;101803.38;5119035;27;20073;-62
2023/10/10 06:43:18;;;;;;;;;;;;;;;13.32;100.00;101814.13;5119541;27;20030;-62
2023/10/10 06:45:48;;;;;;;27.85;15.00;;;;;;;13.33;100.00;101803.53;5118865;27;19911;-61
2023/10/10 06:48:15;;;;;;;23.08;14.77;;;;;;;13.40;100.00;101802.72;5118935;28;20448;-61
2023/10/10 06:50:40;;;;;;;26.10;14.52;;;;;;;13.41;100.00;101801.00;5115164;28;20469;-60
2023/10/10 06:53:06;;;;;;;26.02;15.35;;;;;;;13.40;100.00;101804.50;5115514;28;20035;-61
2023/10/10 06:55:36;;;;;;;22.83;14.93;;;;;;;13.38;100.00;101803.59;5115829;28;20060;-61
2023/10/10 06:58:12;;;;;;;24.58;13.70;;;;;;;13.40;100.00;101805.41;5115974;28;20115;-61
2023/10/10 07:00:42;;;;;;;23.60;14.63;;;;;;;13.43;100.00;101805.44;5115538;28;20027;-62
2023/10/10 07:03:09;;;;;;;25.98;14.45;;;;;;;13.47;100.00;101798.41;5115589;28;20469;-62
2023/10/10 07:05:34;;;;;;;23.25;14.35;;;;;;;13.49;100.00;101802.91;5115596;28;20031;-61
2023/10/10 07:08:12;;;;;;;29.58;15.00;;;;;;;13.53;100.00;101810.03;5115346;28;20036;-61
2023/10/10 07:10:41;;;;;;;25.42;14.98;;;;;;;13.58;100.00;101796.81;5115546;28;20028;-61
2023/10/10 07:13:12;;;;;;;26.15;14.82;;;;;;;13.72;100.00;101804.97;5115590;28;20023;-62
2023/10/10 07:15:39;;;;;;;22.80;14.10;;;;;;;13.83;100.00;101807.75;5115658;28;20036;-62
2023/10/10 07:18:09;;;;;;;25.20;14.52;;;;;;;13.93;100.00;101802.59;5115262;28;20427;-62
2023/10/10 07:23:22;;;;;;;26.17;15.25;;;;;;;14.16;100.00;101791.31;5115555;28;20074;-61
2023/10/10 07:26:18;;;;;;;21.35;15.05;;;;;;;14.21;100.00;101793.16;5115238;28;20475;-61
2023/10/10 07:28:47;;;;;;;26.70;15.07;;;;;;;14.27;100.00;101795.00;5114665;28;20039;-61
2023/10/10 07:31:17;;;;;;;28.42;15.07;;;;;;;14.31;100.00;101796.81;5115232;28;20110;-61
2023/10/10 07:34:14;;;;;;;24.52;15.70;;;;;;;14.36;100.00;101794.22;5115182;28;20027;-61
2023/10/10 07:36:43;;;;;;;26.75;15.57;;;;;;;14.47;100.00;101797.84;5115147;28;20477;-61
2023/10/10 07:42:09;;;;;;;24.08;15.68;;;;;;;14.60;100.00;101793.56;5064445;28;20064;-62
2023/10/10 07:44:35;;;;;;;24.48;16.05;;;;;;;14.64;100.00;101782.09;5115187;28;20070;-62
2023/10/10 07:49:35;;;;;;;25.25;15.85;;;;;;;14.72;100.00;101780.38;5115100;28;20046;-61
2023/10/10 07:52:04;;;;;;;27.00;15.02;;;;;;;14.78;100.00;101780.47;5114632;28;20143;-61
2023/10/10 07:54:40;;;;;;;30.42;15.10;;;;;;;14.84;100.00;101788.47;5114632;28;20059;-62
2023/10/10 07:57:17;;;;;;;27.63;15.05;;;;;;;14.92;100.00;101783.22;5115031;28;20093;-62
2023/10/10 07:59:46;;;;;;;21.75;14.50;;;;;;;15.01;100.00;101794.81;5115064;28;20036;-61
2023/10/10 08:02:24;;;;;;;23.70;15.23;;;;;;;15.07;100.00;101783.31;5113055;28;20473;-61
2023/10/10 08:05:09;;;;;;;26.20;14.80;;;;;;;15.19;100.00;101785.19;5114944;28;20084;-61
2023/10/10 08:07:35;;;;;;;24.65;15.25;;;;;;;15.32;100.00;101783.50;5114615;28;20465;-61
2023/10/10 08:10:13;;;;;;;21.55;13.90;;;;;;;15.49;100.00;101780.03;5114807;28;20032;-61
2023/10/10 08:12:40;;;;;;;23.00;14.73;;;;;;;15.69;100.00;101792.63;5114742;27;20380;-61
2023/10/10 08:15:24;;;;;;;21.95;13.90;;;;;;;15.85;98.12;101785.59;5114457;27;20031;-62
2023/10/10 08:17:54;;;;;;;23.50;13.90;;;;;;;16.01;97.36;101787.41;5114512;28;20092;-62
2023/10/10 08:23:04;;;;;;;24.45;13.48;;;;;;;16.22;95.06;101787.47;5114418;28;20101;-61
2023/10/10 08:25:30;;;;;;;25.45;14.07;;;;;;;16.35;95.20;101795.50;5114463;28;20031;-62
2023/10/10 08:27:58;;;;;;;26.90;14.23;;;;;;;16.41;95.12;101792.88;5114081;28;20042;-61
2023/10/10 08:30:25;;;;;;;24.02;12.98;;;;;;;16.50;94.15;101791.09;5114125;27;20032;-61
2023/10/10 08:32:56;;;;;;;23.85;13.55;;;;;;;16.58;94.38;101785.78;5113976;28;20070;-61
2023/10/10 08:35:29;;;;;;;24.70;13.05;;;;;;;16.60;93.19;101781.31;5113835;28;20485;-62
2023/10/10 08:37:56;;;;;;;22.30;13.05;;;;;;;16.61;92.47;101783.09;5114103;28;20103;-62
2023/10/10 08:40:21;;;;;;;20.77;12.35;;;;;;;16.66;93.27;101784.00;5113749;28;20080;-61
2023/10/10 08:42:49;;;;;;;24.35;12.55;;;;;;;16.82;92.19;101792.94;5112330;28;20035;-61
2023/10/10 08:45:25;;;;;;;18.38;11.60;;;;;;;16.88;90.96;101782.28;5113539;28;20039;-62
2023/10/10 08:48:01;;;;;;;16.40;11.02;;;;;;;16.99;90.27;101795.59;5113581;28;20023;-61
2023/10/10 08:50:28;;;;;;;19.27;11.32;;;;;;;17.00;88.51;101787.59;5113479;28;20032;-62
2023/10/10 08:52:54;;;;;;;19.60;11.50;;;;;;;17.11;89.18;101792.03;5113417;28;20468;-61
2023/10/10 08:55:26;;;;;;;21.05;12.18;;;;;;;17.21;89.25;101788.44;5112237;28;20123;-62
2023/10/10 08:57:53;;;;;;;20.38;11.60;;;;;;;17.37;87.62;101792.00;5113735;27;20057;-61
2023/10/10 09:00:18;;;;;;;20.75;11.35;;;;;;;17.47;87.00;101783.06;5113436;28;20028;-61
2023/10/10 09:02:49;;;;;;;19.85;11.73;;;;;;;17.66;87.33;101799.94;5113387;28;20111;-61
2023/10/10 09:05:15;;;;;;;21.65;11.40;;;;;;;17.83;86.07;101787.44;5113333;28;20130;-61
2023/10/10 09:07:44;;;;;;;19.20;11.20;;;;;;;17.88;85.09;101782.94;5113713;28;20028;-62
2023/10/10 09:10:15;;;;;;;17.52;11.35;;;;;;;17.96;84.46;101791.81;5113245;28;20073;-62
2023/10/10 09:12:53;;;;;;;18.52;11.40;;;;;;;18.06;84.17;101800.69;5112955;28;20036;-62
2023/10/10 09:15:19;;;;;;;17.48;10.90;;;;;;;18.24;83.01;101792.59;5113214;28;20039;-63
2023/10/10 09:17:45;;;;;;;16.02;10.32;;;;;;;18.55;82.52;101803.09;5113155;28;20024;-61
2023/10/10 09:20:23;;;;;;;20.48;11.18;;;;;;;18.63;81.35;101795.91;5113155;28;20058;-61
2023/10/10 09:22:55;;;;;;;18.73;10.90;;;;;;;18.80;79.57;101790.44;5113157;28;20059;-61
2023/10/10 09:25:44;;;;;;;18.23;10.63;;;;;;;19.04;79.59;101770.56;5113131;28;20024;-62
2023/10/10 09:28:16;;;;;;;18.58;10.88;;;;;;;19.10;78.00;101780.34;5113353;28;20046;-62
2023/10/10 09:30:49;;;;;;;21.50;11.30;;;;;;;19.08;76.79;101788.41;5112119;28;20038;-63
2023/10/10 09:33:28;;;;;;;22.55;9.90;;;;;;;19.33;75.41;101783.69;5112762;28;20421;-63
2023/10/10 09:35:59;;;;;;;17.33;9.32;;;;;;;19.49;74.80;101787.09;5112933;28;20530;-62
2023/10/10 09:38:36;;;;;;;16.25;9.60;;;;;;;19.65;74.81;101787.84;5113086;28;20133;-62
2023/10/10 09:41:15;;;;;;;15.30;9.38;;;;;;;19.84;74.03;101792.09;5113261;28;20036;-62
2023/10/10 09:49:51;;;;;;;21.42;10.60;;;;;;;20.38;70.80;101800.28;5112868;28;20039;-63
2023/10/10 09:58:01;;;;;;;18.35;10.07;;;;;;;20.87;70.62;101804.03;5092664;28;20036;-62
2023/10/10 10:00:46;;;;;;;20.60;9.95;;;;;;;21.25;69.21;101790.81;5111196;28;20114;-62
2023/10/10 10:03:31;;;;;;;15.80;9.73;;;;;;;21.57;65.99;101794.72;5106306;28;20335;-63
2023/10/10 10:06:57;;;;;;;16.55;9.68;;;;;;;22.03;65.96;101784.81;5104691;28;20081;-63
2023/10/10 10:09:38;;;;;;;18.52;9.40;;;;;;;22.17;64.08;101783.63;5104323;28;20122;-62
2023/10/10 10:12:41;;;;;;;15.68;9.15;;;;;;;22.35;63.93;101784.13;5112907;28;20039;-62
2023/10/10 10:15:18;;;;;;;19.52;9.25;;;;;;;22.86;62.93;101778.38;5112415;28;20028;-62
2023/10/10 10:17:56;;;;;;;15.50;9.68;;;;;;;23.05;60.74;101776.16;5112701;28;20027;-63
2023/10/10 10:20:23;;;;;;;21.10;9.82;;;;;;;22.94;59.02;101784.50;5112678;28;20604;-61
2023/10/10 10:22:53;;;;;;;19.55;9.40;;;;;;;22.98;59.45;101783.50;5112716;28;20346;-61
2023/10/10 10:25:22;;;;;;;17.02;9.45;;;;;;;23.15;58.04;101778.53;5115043;28;20032;-62
2023/10/10 10:27:51;;;;;;;16.60;9.90;;;;;;;23.39;59.33;101776.13;5116857;28;20024;-61
2023/10/10 10:32:54;;;;;;;20.98;9.63;;;;;;;23.70;58.02;101768.94;5116368;28;20036;-63
2023/10/10 10:35:44;;;;;;;18.73;9.63;;;;;;;23.56;58.72;101767.56;5116318;28;20080;-62
2023/10/10 10:38:09;;;;;;;18.80;10.30;;;;;;;23.23;57.23;101770.25;5105294;27;20032;-62
2023/10/10 10:43:16;;;;;;;16.00;9.63;;;;;;;23.61;57.42;101760.22;5115886;28;20051;-64
2023/10/10 10:45:51;;;;;;;19.17;9.45;;;;;;;23.85;57.13;101761.31;5115943;28;20032;-62
2023/10/10 10:48:34;;;;;;;15.02;8.90;;;;;;;24.07;56.15;101759.75;5116134;28;20387;-62
2023/10/10 10:51:22;;;;;;;15.20;9.13;;;;;;;24.53;56.79;101762.84;5116022;27;20075;-63
2023/10/10 10:53:58;;;;;;;16.27;10.10;;;;;;;24.42;55.06;101749.69;5115720;28;20473;-62
2023/10/10 10:59:12;;;;;;;17.35;9.77;;;;;;;24.68;53.63;101752.41;5115955;28;20027;-62
2023/10/10 11:01:45;;;;;;;17.83;9.63;;;;;;;24.71;53.78;101749.63;5115933;28;20032;-63
2023/10/10 11:04:25;;;;;;;16.27;8.70;;;;;;;24.93;53.09;101752.47;5115753;28;20035;-63
2023/10/10 11:07:00;;;;;;;14.25;9.40;;;;;;;24.76;53.13;101748.56;5115850;28;20388;-62
2023/10/10 11:09:32;;;;;;;17.85;8.88;;;;;;;25.03;52.98;101741.31;5115674;28;20054;-63
2023/10/10 11:12:02;;;;;;;15.25;8.75;;;;;;;25.21;51.84;101746.09;5116073;28;20027;-61
2023/10/10 11:14:44;;;;;;;15.70;8.95;;;;;;;24.86;51.89;101737.38;5115591;28;20027;-62
2023/10/10 11:17:18;;;;;;;17.63;8.73;;;;;;;24.75;53.84;101736.84;5115601;28;20024;-63
2023/10/10 11:19:53;;;;;;;15.57;8.32;;;;;;;24.77;50.66;101732.28;5115705;28;20035;-63
2023/10/10 11:22:38;;;;;;;18.60;8.88;;;;;;;24.78;51.43;101725.06;5114417;28;20038;-62
2023/10/10 11:25:05;;;;;;;17.55;9.40;;;;;;;24.61;51.08;101729.22;5115322;28;20511;-63
2023/10/10 11:27:35;;;;;;;16.80;8.55;;;;;;;24.89;51.19;101721.06;5115315;28;20499;-63
2023/10/10 11:30:08;;;;;;;12.82;8.68;;;;;;;24.65;50.79;101720.06;5115534;28;20031;-63
2023/10/10 11:32:45;;;;;;;16.42;9.27;;;;;;;24.26;51.73;101722.25;5115041;28;20023;-63
2023/10/10 11:35:17;;;;;;;13.75;8.05;;;;;;;24.62;51.58;101708.47;5115264;28;20024;-62
2023/10/10 11:37:47;;;;;;;;;;;;;;;24.97;53.75;101715.38;5115182;28;20032;-63
2023/10/10 11:40:19;;;;;;;16.23;8.15;;;;;;;25.18;50.70;101711.03;5115001;28;19915;-64
2023/10/10 11:42:49;;;;;;;14.27;8.00;;;;;;;25.15;50.60;101717.47;5115119;28;20035;-63
2023/10/10 11:45:19;;;;;;;14.63;8.27;;;;;;;25.23;50.28;101709.06;5114878;28;20020;-63
2023/10/10 11:47:45;;;;;;;13.93;8.23;;;;;;;25.08;50.66;101706.88;5114983;28;20027;-64
2023/10/10 11:50:12;;;;;;;13.88;8.35;;;;;;;25.21;50.88;101703.69;5115480;28;20046;-64
2023/10/10 11:52:57;;;;;;;15.93;7.75;;;;;;;25.11;51.75;101694.16;5114445;28;20188;-63
2023/10/10 11:55:26;;;;;;;18.33;7.70;;;;;;;25.27;50.28;101688.16;5114990;28;20028;-64
2023/10/10 11:58:06;;;;;;;16.67;7.82;;;;;;;25.47;50.10;101693.72;5114725;28;20023;-63
2023/10/10 12:00:44;;;;;;;14.60;7.53;;;;;;;25.63;49.28;101692.19;5114534;28;20035;-63
2023/10/10 12:03:16;;;;;;;15.63;7.38;;;;;;;25.59;49.07;101684.25;5114717;28;20076;-63
2023/10/10 12:05:47;;;;;;;13.70;7.85;;;;;;;25.39;50.07;101688.59;5114585;28;20032;-64
2023/10/10 12:08:22;;;;;;;15.40;8.00;;;;;;;25.43;49.55;101687.53;5114574;27;20032;-63
2023/10/10 12:10:52;;;;;;;16.05;8.00;;;;;;;25.48;51.08;101677.44;5114448;28;20059;-64
2023/10/10 12:16:00;;;;;;;15.75;8.07;;;;;;;25.94;48.62;101678.38;5114423;28;20387;-63
2023/10/10 12:18:31;;;;;;;13.88;7.97;;;;;;;26.12;47.27;101690.31;5114170;28;20016;-63
2023/10/10 12:21:01;;;;;;;18.08;8.15;;;;;;;26.32;46.93;101675.03;5114427;28;20059;-63
2023/10/10 12:23:27;;;;;;;13.05;7.97;;;;;;;26.46;46.11;101678.94;5114071;28;20106;-63
2023/10/10 12:25:54;;;;;;;20.38;8.13;;;;;;;26.53;45.79;101679.59;5114231;28;20055;-64
2023/10/10 12:28:20;;;;;;;14.63;7.72;;;;;;;26.40;45.93;101668.34;5114057;28;20020;-63
2023/10/10 12:30:45;;;;;;;16.48;7.07;;;;;;;26.64;46.73;101660.16;5114048;28;20408;-63
2023/10/10 12:33:16;;;;;;;16.70;7.95;;;;;;;26.82;44.84;101661.19;5113969;28;20015;-63
2023/10/10 12:35:47;;;;;;;14.68;8.15;;;;;;;26.46;45.66;101662.69;5113982;28;20035;-63
2023/10/10 12:38:20;;;;;;;12.75;7.90;;;;;;;26.57;45.77;101655.94;5114024;28;20076;-64
2023/10/10 12:40:54;;;;;;;16.50;7.80;;;;;;;26.69;44.97;101645.44;5113987;28;20031;-64
2023/10/10 12:43:24;;;;;;;18.83;7.38;;;;;;;26.74;44.09;101642.53;5113979;28;20500;-63
2023/10/10 12:45:56;;;;;;;13.15;7.63;;;;;;;26.78;46.07;101646.00;5113677;28;20038;-63
2023/10/10 12:48:22;;;;;;;15.27;6.93;;;;;;;26.89;44.58;101638.25;5112817;28;20104;-63
2023/10/10 12:50:51;;;;;;;16.40;6.70;;;;;;;26.86;45.29;101641.13;5113543;28;20051;-63
2023/10/10 12:53:21;;;;;;;13.70;7.00;;;;;;;26.88;43.56;101640.09;5113803;28;20370;-63
2023/10/10 12:56:23;;;;;;;13.95;6.78;;;;;;;26.73;43.65;101642.63;5113890;28;20020;-63
2023/10/10 12:58:43;;;;;;;10.60;6.25;;;;;;;26.81;41.67;101640.41;5110654;28;20040;-62
2023/10/10 13:01:12;;;;;;;16.50;6.43;;;;;;;26.86;40.58;101632.97;5113486;28;20026;-63
2023/10/10 13:03:38;;;;;;;13.55;6.85;;;;;;;27.07;40.80;101634.72;5113551;28;20034;-63
2023/10/10 13:06:04;;;;;;;15.75;6.25;;;;;;;27.18;40.98;101627.00;5112116;28;20023;-63
2023/10/10 13:08:47;;;;;;;11.27;6.25;;;;;;;27.09;41.66;101631.94;5113379;28;20032;-63
2023/10/10 13:11:16;;;;;;;14.77;6.40;;;;;;;27.01;41.71;101631.41;5113704;28;20035;-63
2023/10/10 13:13:45;;;;;;;11.85;6.60;;;;;;;27.16;40.85;101636.16;5113689;27;20028;-63
2023/10/10 13:18:58;;;;;;;13.35;6.20;;;;;;;27.00;42.01;101637.78;5113747;28;20080;-64
2023/10/10 13:21:23;;;;;;;11.98;6.05;;;;;;;26.80;41.19;101639.53;5113442;28;20024;-64
2023/10/10 13:23:53;;;;;;;12.02;6.25;;;;;;;26.95;41.42;101635.28;5113402;28;20058;-62
2023/10/10 13:26:22;;;;;;;12.40;6.10;;;;;;;26.99;39.36;101638.75;5113118;28;20034;-63
2023/10/10 13:28:48;;;;;;;14.02;6.05;;;;;;;27.09;39.94;101637.34;5113182;28;20109;-63
2023/10/10 13:31:15;;;;;;;12.73;5.55;;;;;;;27.24;40.20;101631.28;5113159;28;20102;-63
2023/10/10 13:33:41;;;;;;;13.52;5.43;;;;;;;27.43;40.38;101632.16;5112934;28;20032;-63
2023/10/10 13:36:15;;;;;;;14.55;5.72;;;;;;;27.39;39.56;101635.09;5113085;28;20034;-63
2023/10/10 13:38:49;;;;;;;14.50;5.25;;;;;;;27.57;38.99;101634.19;5113064;28;20377;-63
2023/10/10 13:41:19;;;;;;;12.45;5.32;;;;;;;27.54;38.29;101637.09;5113318;28;20023;-63
2023/10/10 13:43:47;;;;;;;10.80;5.50;;;;;;;27.21;40.07;101631.41;5113078;28;20059;-63
2023/10/10 13:46:13;;;;;;;13.82;5.65;;;;;;;27.14;39.95;101628.06;5112961;28;20027;-63
2023/10/10 13:48:39;;;;;;;10.30;5.47;;;;;;;27.27;39.46;101630.22;5113165;28;20031;-62
2023/10/10 13:51:09;;;;;;;8.65;5.47;;;;;;;27.13;40.22;101626.31;5111653;28;20056;-63
2023/10/10 13:53:39;;;;;;;9.20;5.35;;;;;;;27.33;39.45;101627.25;5113035;28;20035;-63
2023/10/10 13:56:05;;;;;;;10.82;5.43;;;;;;;27.41;40.25;101608.78;5113054;28;20027;-64
2023/10/10 13:58:31;;;;;;;11.82;5.70;;;;;;;27.36;40.52;101624.38;5113199;28;20028;-63
2023/10/10 14:01:13;;;;;;;10.82;5.53;;;;;;;27.34;41.00;101621.72;5116218;28;20028;-63
2023/10/10 14:03:48;;;;;;;10.43;5.55;;;;;;;27.25;41.32;101607.72;5117139;28;20031;-62
2023/10/10 14:06:22;;;;;;;15.75;5.80;;;;;;;27.27;41.31;101609.41;5117032;28;20036;-64
2023/10/10 14:08:48;;;;;;;10.18;5.50;;;;;;;27.26;41.75;101609.47;5117400;28;20380;-63
2023/10/10 14:11:23;;;;;;;11.43;4.95;;;;;;;27.16;41.89;101604.47;5116811;28;20114;-62
2023/10/10 14:13:50;;;;;;;10.85;5.60;;;;;;;27.17;41.15;101597.22;5117208;28;20423;-63
2023/10/10 14:16:16;;;;;;;14.40;5.80;;;;;;;27.03;42.15;101597.84;5116995;28;20032;-64
2023/10/10 14:18:49;;;;;;;11.90;5.50;;;;;;;27.11;42.27;101598.41;5116898;28;20035;-63
2023/10/10 14:21:16;;;;;;;13.98;5.40;;;;;;;27.17;40.94;101600.81;5117015;28;20388;-62
2023/10/10 14:23:44;;;;;;;9.93;5.20;;;;;;;27.22;41.26;101606.03;5116575;28;20035;-63